Coitsville, Ohio
Current Conditions -  °F | °C
As of 8:56 AM on Thursday 29 Jan 2015 (Local Time) from KUCP Reporting Station
Scattered Clouds Scattered Clouds  
Wind Chill: 25°   Ceiling: Unl
Heat Index: 25°   Visibility: 10mi
Dew Point: 10°   Wind: 3mph
Humidity: 53%   Direction: 140°SE
Pressure: 29.98"   Gusts: NA
Location:  41.0609°N, 80.5426°W
Report Text: KUCP 291356Z AUTO 14003KT 10SM SCT060 M04/M12 A2998 RMK AO2 T10381122 SLP182
Loading
Personal Weather Stations






























Interactive Weather Map New forecast layout! Learn more

10-Day Weather Forecast

Advertisements
Track Severe Weather on mobile